Time;durP1;ratioP1;P1;durP2;ratioP2;P2;SDS_P1;SDS_P2;PMS_P1;PMS_P2;Temp;Humidity;BMP_temperature;BMP_pressure;BME280_temperature;BME280_humidity;BME280_pressure;Samples;Min_cycle;Max_cycle;Signal;HPM_P1;HPM_P2
2022/11/01 00:01:25;;;;;;;0.10;0.10;;;;;;;;;;5011804;28;20493;-73
2022/11/01 00:03:50;;;;;;;7.38;5.25;;;;;;;;;;5014347;28;20531;-72
2022/11/01 00:06:16;;;;;;;1.40;1.30;;;;;;;;;;5022312;28;20029;-74
2022/11/01 00:08:41;;;;;;;0.88;0.85;;;;;;;;;;5031117;28;20029;-74
2022/11/01 00:11:10;;;;;;;0.75;0.73;;;;;;;;;;5031223;28;20346;-74
2022/11/01 00:13:36;;;;;;;0.20;0.20;;;;;;;;;;5030709;28;20037;-72
2022/11/01 00:16:01;;;;;;;0.10;0.10;;;;;;;;;;5030796;28;20041;-73
2022/11/01 00:18:27;;;;;;;20.83;8.60;;;;;;;;;;5030677;28;20025;-74
2022/11/01 00:20:52;;;;;;;0.10;0.10;;;;;;;;;;5030469;28;20385;-73
2022/11/01 00:23:17;;;;;;;0.10;0.10;;;;;;;;;;5013094;28;20020;-73
2022/11/01 00:25:43;;;;;;;0.10;0.10;;;;;;;;;;5031658;28;20079;-74
2022/11/01 00:28:09;;;;;;;0.40;0.40;;;;;;;;;;5030952;28;20381;-74
2022/11/01 00:30:38;;;;;;;0.50;0.50;;;;;;;;;;5035616;28;20028;-74
2022/11/01 00:33:04;;;;;;;0.20;0.20;;;;;;;;;;5035369;28;20037;-74
2022/11/01 00:35:33;;;;;;;0.10;0.10;;;;;;;;;;5035648;28;20030;-74
2022/11/01 00:37:58;;;;;;;0.55;0.55;;;;;;;;;;5035345;28;20014;-73
2022/11/01 00:40:24;;;;;;;0.30;0.30;;;;;;;;;;5035317;28;20048;-74
2022/11/01 00:42:50;;;;;;;4.40;3.53;;;;;;;;;;5017628;28;20045;-73
2022/11/01 00:45:15;;;;;;;2.38;2.28;;;;;;;;;;5035271;28;20485;-73
2022/11/01 00:47:42;;;;;;;0.13;0.13;;;;;;;;;;5035015;28;20042;-74
2022/11/01 00:50:08;;;;;;;0.15;0.15;;;;;;;;;;5017595;28;20029;-73
2022/11/01 00:52:33;;;;;;;0.10;0.10;;;;;;;;;;5035292;28;20473;-73
2022/11/01 00:54:59;;;;;;;0.10;0.10;;;;;;;;;;5034942;28;20018;-73
2022/11/01 00:57:24;;;;;;;0.10;0.10;;;;;;;;;;5035069;28;20469;-73
2022/11/01 00:59:49;;;;;;;0.35;0.35;;;;;;;;;;5035366;28;20056;-72
2022/11/01 01:02:15;;;;;;;0.10;0.10;;;;;;;;;;5016987;28;20063;-73
2022/11/01 01:04:42;;;;;;;4.75;2.05;;;;;;;;;;5034899;28;20030;-72
2022/11/01 01:07:10;;;;;;;3.65;3.45;;;;;;;;;;5033942;28;20044;-72
2022/11/01 01:09:35;;;;;;;0.73;0.73;;;;;;;;;;5017489;28;20033;-73
2022/11/01 01:12:01;;;;;;;0.10;0.10;;;;;;;;;;5035052;28;20037;-72
2022/11/01 01:14:27;;;;;;;0.20;0.20;;;;;;;;;;5034976;28;20053;-72
2022/11/01 01:16:52;;;;;;;0.10;0.10;;;;;;;;;;5034938;28;20053;-72
2022/11/01 01:19:18;;;;;;;0.10;0.10;;;;;;;;;;5034705;28;20088;-73
2022/11/01 01:21:43;;;;;;;0.10;0.10;;;;;;;;;;5035158;28;20527;-73
2022/11/01 01:24:09;;;;;;;0.00;0.00;;;;;;;;;;5035128;28;20064;-73
2022/11/01 01:26:34;;;;;;;0.10;0.10;;;;;;;;;;5017177;28;20092;-73
2022/11/01 01:29:00;;;;;;;0.10;0.10;;;;;;;;;;5034648;28;20475;-73
2022/11/01 01:31:25;;;;;;;0.55;0.55;;;;;;;;;;5034468;28;20466;-73
2022/11/01 01:33:51;;;;;;;0.20;0.20;;;;;;;;;;5036173;28;20053;-73
2022/11/01 01:36:16;;;;;;;0.10;0.10;;;;;;;;;;5042187;28;20033;-73
2022/11/01 01:38:41;;;;;;;0.10;0.10;;;;;;;;;;5041926;28;20030;-73
2022/11/01 01:43:51;;;;;;;0.10;0.10;;;;;;;;;;5034723;28;20053;-74
2022/11/01 01:46:16;;;;;;;0.25;0.25;;;;;;;;;;5032857;28;20020;-73
2022/11/01 01:48:43;;;;;;;0.10;0.10;;;;;;;;;;5034290;28;20476;-73
2022/11/01 01:51:11;;;;;;;0.20;0.20;;;;;;;;;;5016800;28;20026;-73
2022/11/01 01:53:39;;;;;;;0.10;0.10;;;;;;;;;;5016228;28;20489;-73
2022/11/01 01:56:06;;;;;;;0.47;0.47;;;;;;;;;;5034277;28;20025;-73
2022/11/01 01:58:38;;;;;;;1.55;1.38;;;;;;;;;;5033960;28;20037;-73
2022/11/01 02:01:03;;;;;;;0.95;0.95;;;;;;;;;;5033759;28;20362;-73
2022/11/01 02:03:31;;;;;;;0.10;0.10;;;;;;;;;;5033893;28;20032;-71
2022/11/01 02:05:59;;;;;;;0.10;0.10;;;;;;;;;;5015403;28;20048;-73
2022/11/01 02:08:27;;;;;;;0.10;0.10;;;;;;;;;;5033713;28;20025;-73
2022/11/01 02:10:58;;;;;;;0.10;0.10;;;;;;;;;;5016306;28;20033;-73
2022/11/01 02:13:24;;;;;;;0.10;0.10;;;;;;;;;;5033540;28;20033;-73
2022/11/01 02:15:56;;;;;;;0.10;0.10;;;;;;;;;;5033546;28;20037;-73
2022/11/01 02:18:35;;;;;;;0.10;0.10;;;;;;;;;;5033806;28;20072;-73
2022/11/01 02:21:00;;;;;;;0.10;0.10;;;;;;;;;;5032643;28;20021;-72
2022/11/01 02:23:36;;;;;;;0.10;0.10;;;;;;;;;;5033516;28;20079;-73
2022/11/01 02:26:13;;;;;;;0.35;0.35;;;;;;;;;;5025388;28;20513;-72
2022/11/01 02:28:39;;;;;;;0.57;0.57;;;;;;;;;;5026891;28;20037;-73
2022/11/01 02:31:22;;;;;;;0.10;0.10;;;;;;;;;;5033787;28;20362;-73
2022/11/01 02:33:50;;;;;;;0.10;0.10;;;;;;;;;;5015640;28;20076;-73
2022/11/01 02:36:21;;;;;;;0.95;0.95;;;;;;;;;;5032658;28;20022;-73
2022/11/01 02:38:51;;;;;;;0.70;0.63;;;;;;;;;;5006978;28;20036;-74
2022/11/01 02:41:24;;;;;;;2.83;2.63;;;;;;;;;;5013757;28;20072;-74
2022/11/01 02:43:56;;;;;;;0.10;0.10;;;;;;;;;;5013640;28;20094;-73
2022/11/01 02:49:08;;;;;;;0.60;0.52;;;;;;;;;;5013240;28;20022;-73
2022/11/01 02:51:35;;;;;;;0.10;0.10;;;;;;;;;;5013713;28;20448;-73
2022/11/01 02:54:07;;;;;;;0.10;0.10;;;;;;;;;;4995756;28;20042;-74
2022/11/01 02:56:33;;;;;;;0.03;0.03;;;;;;;;;;5013255;28;20033;-74
2022/11/01 02:58:59;;;;;;;0.20;0.20;;;;;;;;;;4995771;28;20120;-74
2022/11/01 03:01:26;;;;;;;0.10;0.10;;;;;;;;;;4995715;28;20069;-72
2022/11/01 03:03:53;;;;;;;0.10;0.10;;;;;;;;;;5013149;28;20473;-73
2022/11/01 03:06:33;;;;;;;0.32;0.32;;;;;;;;;;5013373;28;20085;-76
2022/11/01 03:09:01;;;;;;;0.10;0.10;;;;;;;;;;5014513;28;20030;-75
2022/11/01 03:11:42;;;;;;;0.35;0.35;;;;;;;;;;5015686;28;20049;-74
2022/11/01 03:14:27;;;;;;;0.10;0.10;;;;;;;;;;5015650;28;20077;-74
2022/11/01 03:16:55;;;;;;;0.20;0.20;;;;;;;;;;4996980;28;20042;-73
2022/11/01 03:19:21;;;;;;;0.10;0.10;;;;;;;;;;4999773;28;20025;-73
2022/11/01 03:21:54;;;;;;;0.10;0.10;;;;;;;;;;5017152;28;20493;-74
2022/11/01 03:24:27;;;;;;;0.20;0.20;;;;;;;;;;5017099;28;20040;-74
2022/11/01 03:27:19;;;;;;;0.10;0.10;;;;;;;;;;5017285;28;20030;-73
2022/11/01 03:29:47;;;;;;;0.03;0.03;;;;;;;;;;4993814;28;20045;-73
2022/11/01 03:32:14;;;;;;;0.10;0.10;;;;;;;;;;5016896;28;20087;-73
2022/11/01 03:34:39;;;;;;;0.10;0.10;;;;;;;;;;4999392;28;20044;-73
2022/11/01 03:37:08;;;;;;;1.48;1.38;;;;;;;;;;4999119;28;20125;-73
2022/11/01 03:39:44;;;;;;;0.10;0.10;;;;;;;;;;4999488;28;20035;-73
2022/11/01 03:42:13;;;;;;;0.47;0.47;;;;;;;;;;5016776;28;20065;-74
2022/11/01 03:44:41;;;;;;;0.57;0.57;;;;;;;;;;4999373;28;20104;-72
2022/11/01 03:47:07;;;;;;;0.20;0.20;;;;;;;;;;4998917;28;20022;-73
2022/11/01 03:49:33;;;;;;;0.10;0.10;;;;;;;;;;5016442;28;20022;-72
2022/11/01 03:51:58;;;;;;;0.10;0.10;;;;;;;;;;5016359;28;20040;-72
2022/11/01 03:54:26;;;;;;;0.15;0.15;;;;;;;;;;5016623;28;20022;-72
2022/11/01 03:56:51;;;;;;;0.10;0.10;;;;;;;;;;5015391;28;20243;-72
2022/11/01 03:59:17;;;;;;;0.10;0.10;;;;;;;;;;5016519;28;20462;-72
2022/11/01 04:01:42;;;;;;;0.10;0.10;;;;;;;;;;5015547;28;20029;-70
2022/11/01 04:04:07;;;;;;;0.05;0.05;;;;;;;;;;5009723;28;20026;-71
2022/11/01 04:06:33;;;;;;;0.10;0.10;;;;;;;;;;5031207;28;20036;-71
2022/11/01 04:08:58;;;;;;;0.20;0.20;;;;;;;;;;5031613;28;20024;-72
2022/11/01 04:11:24;;;;;;;0.10;0.10;;;;;;;;;;5013432;28;20053;-72
2022/11/01 04:13:49;;;;;;;0.10;0.10;;;;;;;;;;5031168;28;20382;-73
2022/11/01 04:21:43;;;;;;;0.22;0.22;;;;;;;;;;5031165;28;20029;-73
2022/11/01 04:24:08;;;;;;;0.10;0.10;;;;;;;;;;5031356;28;20083;-73
2022/11/01 04:26:34;;;;;;;0.10;0.10;;;;;;;;;;5030580;28;20021;-75
2022/11/01 04:28:59;;;;;;;0.10;0.10;;;;;;;;;;5029997;28;20080;-75
2022/11/01 04:31:26;;;;;;;0.45;0.45;;;;;;;;;;5012930;28;20420;-75
2022/11/01 04:33:52;;;;;;;0.10;0.10;;;;;;;;;;5012943;28;20163;-74
2022/11/01 04:36:18;;;;;;;0.10;0.10;;;;;;;;;;5016342;28;20113;-74
2022/11/01 04:38:43;;;;;;;0.10;0.10;;;;;;;;;;5010762;28;20156;-75
2022/11/01 04:41:09;;;;;;;0.10;0.10;;;;;;;;;;5011010;28;20105;-74
2022/11/01 04:43:34;;;;;;;0.00;0.00;;;;;;;;;;5011275;28;20061;-73
2022/11/01 04:46:00;;;;;;;3.80;3.60;;;;;;;;;;5010667;28;20033;-74
2022/11/01 04:48:26;;;;;;;0.10;0.10;;;;;;;;;;5010229;28;20045;-74
2022/11/01 04:50:52;;;;;;;0.20;0.20;;;;;;;;;;5010788;28;20038;-74
2022/11/01 04:53:17;;;;;;;0.10;0.10;;;;;;;;;;5010608;28;20037;-74
2022/11/01 04:55:43;;;;;;;0.20;0.20;;;;;;;;;;5010442;28;20045;-75
2022/11/01 04:58:09;;;;;;;0.10;0.10;;;;;;;;;;5010765;28;20030;-74
2022/11/01 05:00:35;;;;;;;0.10;0.10;;;;;;;;;;5013434;28;20029;-75
2022/11/01 05:03:01;;;;;;;0.10;0.10;;;;;;;;;;5011580;28;20030;-74
2022/11/01 05:05:26;;;;;;;0.10;0.10;;;;;;;;;;5030322;28;20025;-73
2022/11/01 05:08:06;;;;;;;0.10;0.10;;;;;;;;;;5012352;28;20547;-73
2022/11/01 05:10:31;;;;;;;0.38;0.38;;;;;;;;;;5029977;28;20426;-73
2022/11/01 05:12:57;;;;;;;0.05;0.05;;;;;;;;;;5012117;28;20040;-74
2022/11/01 05:15:22;;;;;;;0.10;0.10;;;;;;;;;;5030461;28;20037;-73
2022/11/01 05:17:48;;;;;;;0.10;0.10;;;;;;;;;;5030004;28;20112;-73
2022/11/01 05:20:13;;;;;;;0.10;0.10;;;;;;;;;;5029666;28;20180;-73
2022/11/01 05:22:38;;;;;;;0.10;0.10;;;;;;;;;;5029615;28;20033;-73
2022/11/01 05:25:04;;;;;;;0.10;0.10;;;;;;;;;;5029613;28;20029;-73
2022/11/01 05:27:30;;;;;;;0.20;0.20;;;;;;;;;;5030451;28;20060;-74
2022/11/01 05:29:55;;;;;;;0.10;0.10;;;;;;;;;;5014137;28;20053;-73
2022/11/01 05:32:20;;;;;;;0.10;0.10;;;;;;;;;;5031004;28;20037;-73
2022/11/01 05:34:48;;;;;;;0.10;0.10;;;;;;;;;;5030663;28;20034;-73
2022/11/01 05:37:14;;;;;;;0.20;0.20;;;;;;;;;;5025779;28;20022;-73
2022/11/01 05:39:40;;;;;;;0.10;0.10;;;;;;;;;;5015471;28;20040;-73
2022/11/01 05:42:05;;;;;;;0.57;0.57;;;;;;;;;;5029005;28;20049;-74
2022/11/01 05:44:31;;;;;;;0.10;0.10;;;;;;;;;;5011168;28;20091;-73
2022/11/01 05:46:56;;;;;;;0.10;0.10;;;;;;;;;;5027739;28;20041;-75
2022/11/01 05:49:21;;;;;;;0.10;0.10;;;;;;;;;;5029250;28;20037;-73
2022/11/01 05:51:47;;;;;;;0.17;0.17;;;;;;;;;;5029181;28;20116;-73
2022/11/01 05:54:12;;;;;;;0.10;0.10;;;;;;;;;;5022333;28;20053;-73
2022/11/01 05:56:38;;;;;;;0.10;0.10;;;;;;;;;;5008692;28;20026;-73
2022/11/01 05:59:03;;;;;;;0.10;0.10;;;;;;;;;;5009192;28;20034;-73
2022/11/01 06:01:29;;;;;;;0.10;0.10;;;;;;;;;;5010964;28;20481;-73
2022/11/01 06:03:54;;;;;;;0.10;0.10;;;;;;;;;;5028972;28;20033;-73
2022/11/01 06:06:19;;;;;;;0.10;0.10;;;;;;;;;;5010228;28;20021;-72
2022/11/01 06:08:45;;;;;;;0.30;0.30;;;;;;;;;;5027988;28;20034;-72
2022/11/01 06:11:11;;;;;;;0.10;0.10;;;;;;;;;;5010678;28;20043;-73
2022/11/01 06:13:36;;;;;;;0.10;0.10;;;;;;;;;;5028819;28;20206;-73
2022/11/01 06:16:04;;;;;;;0.10;0.10;;;;;;;;;;5026323;28;20060;-73
2022/11/01 06:18:29;;;;;;;0.10;0.10;;;;;;;;;;5029003;28;20032;-73
2022/11/01 06:20:55;;;;;;;0.93;0.93;;;;;;;;;;5028237;28;20720;-72
2022/11/01 06:23:21;;;;;;;0.10;0.10;;;;;;;;;;5028850;28;20091;-72
2022/11/01 06:25:46;;;;;;;0.10;0.10;;;;;;;;;;5026694;28;20022;-71
2022/11/01 06:28:12;;;;;;;0.28;0.28;;;;;;;;;;5017282;28;20030;-72
2022/11/01 06:30:42;;;;;;;0.10;0.10;;;;;;;;;;5008928;28;20029;-72
2022/11/01 06:33:08;;;;;;;0.10;0.10;;;;;;;;;;5009329;28;20066;-72
2022/11/01 06:35:33;;;;;;;0.10;0.10;;;;;;;;;;4994131;28;20037;-73
2022/11/01 06:38:03;;;;;;;0.20;0.20;;;;;;;;;;5025752;28;20017;-74
2022/11/01 06:40:28;;;;;;;0.13;0.13;;;;;;;;;;5006484;28;20413;-73
2022/11/01 06:42:57;;;;;;;0.10;0.10;;;;;;;;;;4996703;28;20054;-73
2022/11/01 06:45:23;;;;;;;4.00;2.42;;;;;;;;;;5001691;28;20072;-74
2022/11/01 06:47:48;;;;;;;0.10;0.10;;;;;;;;;;5009026;28;20041;-74
2022/11/01 06:50:14;;;;;;;0.47;0.47;;;;;;;;;;5008792;28;20500;-73
2022/11/01 06:52:39;;;;;;;0.30;0.30;;;;;;;;;;4990235;28;20440;-73
2022/11/01 06:55:05;;;;;;;0.15;0.15;;;;;;;;;;5023841;28;20958;-73
2022/11/01 06:57:30;;;;;;;0.60;0.60;;;;;;;;;;5001193;28;20521;-72
2022/11/01 06:59:57;;;;;;;0.10;0.10;;;;;;;;;;4992412;28;20080;-73
2022/11/01 07:02:24;;;;;;;2.75;2.55;;;;;;;;;;4998061;28;20038;-75
2022/11/01 07:04:50;;;;;;;0.10;0.10;;;;;;;;;;4999184;28;20026;-73
2022/11/01 07:07:15;;;;;;;0.10;0.10;;;;;;;;;;4997251;28;20061;-73
2022/11/01 07:09:40;;;;;;;0.10;0.10;;;;;;;;;;4998674;28;20505;-74
2022/11/01 07:12:06;;;;;;;0.45;0.45;;;;;;;;;;4998205;28;20054;-73
2022/11/01 07:14:31;;;;;;;0.40;0.40;;;;;;;;;;4996454;28;20030;-73
2022/11/01 07:16:57;;;;;;;0.40;0.40;;;;;;;;;;4998785;28;20043;-73
2022/11/01 07:19:22;;;;;;;0.10;0.10;;;;;;;;;;4997335;28;20034;-74
2022/11/01 07:21:48;;;;;;;0.10;0.10;;;;;;;;;;4997435;28;20474;-74
2022/11/01 07:24:14;;;;;;;1.45;1.45;;;;;;;;;;5014034;28;20064;-74
2022/11/01 07:26:39;;;;;;;0.10;0.10;;;;;;;;;;4997337;28;20052;-73
2022/11/01 07:29:05;;;;;;;0.10;0.10;;;;;;;;;;4997064;28;20400;-74
2022/11/01 07:31:32;;;;;;;0.20;0.20;;;;;;;;;;4998997;28;20033;-74
2022/11/01 07:33:57;;;;;;;0.32;0.32;;;;;;;;;;5006082;28;20116;-74
2022/11/01 07:36:23;;;;;;;0.30;0.30;;;;;;;;;;5008183;28;20545;-75
2022/11/01 07:38:48;;;;;;;0.80;0.77;;;;;;;;;;5006083;28;20030;-74
2022/11/01 07:41:14;;;;;;;0.30;0.30;;;;;;;;;;5000126;28;20395;-73
2022/11/01 07:43:39;;;;;;;0.20;0.20;;;;;;;;;;5006539;28;20053;-73
2022/11/01 07:46:06;;;;;;;5.13;4.63;;;;;;;;;;4990378;28;20041;-73
2022/11/01 07:48:32;;;;;;;0.25;0.25;;;;;;;;;;5009458;28;20014;-74
2022/11/01 07:50:57;;;;;;;0.70;0.70;;;;;;;;;;5010637;28;20060;-74
2022/11/01 07:53:23;;;;;;;0.17;0.17;;;;;;;;;;4995502;28;20153;-73
2022/11/01 07:55:48;;;;;;;0.30;0.30;;;;;;;;;;5018878;28;20028;-73
2022/11/01 07:58:14;;;;;;;0.57;0.57;;;;;;;;;;5009405;28;20013;-73
2022/11/01 08:00:40;;;;;;;0.22;0.22;;;;;;;;;;5028603;28;20028;-73
2022/11/01 08:03:07;;;;;;;0.20;0.20;;;;;;;;;;5027599;28;20022;-73
2022/11/01 08:05:33;;;;;;;0.50;0.50;;;;;;;;;;5017824;28;20034;-74
2022/11/01 08:07:59;;;;;;;0.20;0.20;;;;;;;;;;5013188;28;20033;-74
2022/11/01 08:10:25;;;;;;;0.20;0.20;;;;;;;;;;5013942;28;20021;-73
2022/11/01 08:12:51;;;;;;;0.20;0.20;;;;;;;;;;5022706;28;20385;-73
2022/11/01 08:15:16;;;;;;;0.20;0.20;;;;;;;;;;5030834;28;20043;-73
2022/11/01 08:17:42;;;;;;;0.20;0.20;;;;;;;;;;5031749;28;20033;-73
2022/11/01 08:20:08;;;;;;;0.13;0.13;;;;;;;;;;5030414;28;20532;-74
2022/11/01 08:22:36;;;;;;;1.08;1.05;;;;;;;;;;5013515;28;20034;-73
2022/11/01 08:25:02;;;;;;;0.77;0.77;;;;;;;;;;5028891;28;20600;-73
2022/11/01 08:27:27;;;;;;;0.20;0.20;;;;;;;;;;5030089;28;20124;-74
2022/11/01 08:29:53;;;;;;;0.50;0.50;;;;;;;;;;5025774;28;20036;-74
2022/11/01 08:32:19;;;;;;;0.20;0.20;;;;;;;;;;5011696;28;20172;-74
2022/11/01 08:34:45;;;;;;;1.33;0.65;;;;;;;;;;5030684;28;20030;-73
2022/11/01 08:37:10;;;;;;;0.60;0.60;;;;;;;;;;5030484;28;20040;-73
2022/11/01 08:39:36;;;;;;;0.30;0.30;;;;;;;;;;5012889;28;20033;-74
2022/11/01 08:42:04;;;;;;;0.40;0.40;;;;;;;;;;5028264;28;20386;-73
2022/11/01 08:44:30;;;;;;;0.20;0.20;;;;;;;;;;5030405;28;20025;-74
2022/11/01 08:46:57;;;;;;;0.10;0.10;;;;;;;;;;5029359;28;20485;-74
2022/11/01 08:49:22;;;;;;;0.75;0.75;;;;;;;;;;5030566;28;20024;-72
2022/11/01 08:51:48;;;;;;;0.20;0.20;;;;;;;;;;4995104;28;20025;-72
2022/11/01 08:54:13;;;;;;;0.20;0.20;;;;;;;;;;5029604;28;20087;-73
2022/11/01 08:56:39;;;;;;;0.40;0.40;;;;;;;;;;5029923;28;20047;-73
2022/11/01 08:59:04;;;;;;;0.25;0.25;;;;;;;;;;5025216;28;20021;-73
2022/11/01 09:01:29;;;;;;;2.83;2.70;;;;;;;;;;5030787;28;20025;-73
2022/11/01 09:03:56;;;;;;;0.55;0.55;;;;;;;;;;5029686;28;20405;-73
2022/11/01 09:06:22;;;;;;;0.38;0.35;;;;;;;;;;5029842;28;20057;-75
2022/11/01 09:08:49;;;;;;;0.60;0.60;;;;;;;;;;5022681;28;20597;-73
2022/11/01 09:11:14;;;;;;;2.28;1.35;;;;;;;;;;5021253;28;20108;-73
2022/11/01 09:13:40;;;;;;;0.30;0.30;;;;;;;;;;5026478;28;20132;-72
2022/11/01 09:16:06;;;;;;;0.85;0.85;;;;;;;;;;5026460;28;20056;-72
2022/11/01 09:18:31;;;;;;;0.20;0.20;;;;;;;;;;5025489;28;20107;-72
2022/11/01 09:20:57;;;;;;;0.50;0.50;;;;;;;;;;5026047;28;20501;-73
2022/11/01 09:23:22;;;;;;;0.20;0.20;;;;;;;;;;5026235;28;20404;-73
2022/11/01 09:25:47;;;;;;;0.30;0.30;;;;;;;;;;5025786;28;20083;-72
2022/11/01 09:28:13;;;;;;;0.20;0.20;;;;;;;;;;5025819;28;20048;-73
2022/11/01 09:30:39;;;;;;;0.55;0.55;;;;;;;;;;5026180;28;20841;-73
2022/11/01 09:33:05;;;;;;;0.20;0.20;;;;;;;;;;5025793;28;20045;-73
2022/11/01 09:35:30;;;;;;;1.00;0.45;;;;;;;;;;5026220;28;20032;-73
2022/11/01 09:37:59;;;;;;;0.25;0.25;;;;;;;;;;5026409;28;20022;-72
2022/11/01 09:40:27;;;;;;;1.45;1.35;;;;;;;;;;5024778;28;20041;-73
2022/11/01 09:42:52;;;;;;;2.35;1.08;;;;;;;;;;5026066;28;20083;-73
2022/11/01 09:45:19;;;;;;;0.30;0.30;;;;;;;;;;5027370;28;20469;-72
2022/11/01 09:47:53;;;;;;;0.80;0.80;;;;;;;;;;5029360;28;20036;-72
2022/11/01 09:50:33;;;;;;;0.95;0.95;;;;;;;;;;5011464;28;20029;-73
2022/11/01 09:52:59;;;;;;;0.30;0.30;;;;;;;;;;5029956;28;20488;-74
2022/11/01 09:55:39;;;;;;;0.20;0.20;;;;;;;;;;5011684;28;20538;-73
2022/11/01 09:58:29;;;;;;;0.20;0.20;;;;;;;;;;5011941;28;20044;-74
2022/11/01 10:01:14;;;;;;;0.28;0.28;;;;;;;;;;5021153;28;20392;-73
2022/11/01 10:03:58;;;;;;;0.52;0.52;;;;;;;;;;5018589;28;20042;-73
2022/11/01 10:06:26;;;;;;;0.20;0.20;;;;;;;;;;5028877;28;20052;-74
2022/11/01 10:09:01;;;;;;;0.20;0.20;;;;;;;;;;5028803;28;20056;-73
2022/11/01 10:11:34;;;;;;;0.20;0.20;;;;;;;;;;5027586;28;20034;-74
2022/11/01 10:14:22;;;;;;;0.20;0.20;;;;;;;;;;5028795;28;20076;-74
2022/11/01 10:17:03;;;;;;;0.20;0.20;;;;;;;;;;5028859;28;20477;-73
2022/11/01 10:19:32;;;;;;;0.20;0.20;;;;;;;;;;5029172;28;20044;-73
2022/11/01 10:22:01;;;;;;;0.50;0.45;;;;;;;;;;5028629;28;20025;-73
2022/11/01 10:24:30;;;;;;;0.22;0.22;;;;;;;;;;5008543;28;21685;-72
2022/11/01 10:27:00;;;;;;;0.20;0.20;;;;;;;;;;5018471;28;20040;-73
2022/11/01 10:29:39;;;;;;;0.20;0.20;;;;;;;;;;5018156;28;20124;-72
2022/11/01 10:32:14;;;;;;;0.20;0.20;;;;;;;;;;5031727;28;20036;-73
2022/11/01 10:34:40;;;;;;;0.20;0.20;;;;;;;;;;5001656;28;20021;-73
2022/11/01 10:37:22;;;;;;;0.32;0.32;;;;;;;;;;5000355;28;20553;-73
2022/11/01 10:39:54;;;;;;;0.10;0.10;;;;;;;;;;5019376;28;20114;-72
2022/11/01 10:42:20;;;;;;;0.65;0.65;;;;;;;;;;5018883;28;20071;-73
2022/11/01 10:44:50;;;;;;;0.20;0.20;;;;;;;;;;5016939;28;20034;-72
2022/11/01 10:47:18;;;;;;;0.20;0.20;;;;;;;;;;4999214;28;20113;-73
2022/11/01 10:49:48;;;;;;;0.30;0.30;;;;;;;;;;5018624;28;20096;-73
2022/11/01 10:52:16;;;;;;;0.20;0.20;;;;;;;;;;5020361;28;20491;-74
2022/11/01 10:54:42;;;;;;;2.67;1.75;;;;;;;;;;5019757;28;20109;-73
2022/11/01 10:57:15;;;;;;;1.10;0.60;;;;;;;;;;5017987;28;20021;-73
2022/11/01 10:59:42;;;;;;;0.82;0.63;;;;;;;;;;5019221;28;20022;-73
2022/11/01 11:02:30;;;;;;;0.20;0.20;;;;;;;;;;5017891;28;20480;-73
2022/11/01 11:04:59;;;;;;;2.63;0.87;;;;;;;;;;5018758;28;20157;-73
2022/11/01 11:07:28;;;;;;;0.30;0.30;;;;;;;;;;4998748;28;20268;-73
2022/11/01 11:09:54;;;;;;;0.20;0.20;;;;;;;;;;5000259;28;20024;-73
2022/11/01 11:12:20;;;;;;;0.25;0.25;;;;;;;;;;5010725;28;20026;-74
2022/11/01 11:14:52;;;;;;;0.30;0.30;;;;;;;;;;5012060;28;20034;-72
2022/11/01 11:17:44;;;;;;;4.32;1.58;;;;;;;;;;5028287;28;20030;-72
2022/11/01 11:20:10;;;;;;;0.20;0.20;;;;;;;;;;5026331;28;20053;-73
2022/11/01 11:22:41;;;;;;;0.20;0.20;;;;;;;;;;5010082;28;20034;-73
2022/11/01 11:25:18;;;;;;;0.28;0.28;;;;;;;;;;5010530;28;20087;-73
2022/11/01 11:27:46;;;;;;;0.35;0.35;;;;;;;;;;5010406;28;20450;-72
2022/11/01 11:30:24;;;;;;;0.52;0.52;;;;;;;;;;5028070;28;20021;-72
2022/11/01 11:32:50;;;;;;;1.75;1.65;;;;;;;;;;5010551;28;20044;-72
2022/11/01 11:35:16;;;;;;;0.30;0.30;;;;;;;;;;4993794;28;20033;-73
2022/11/01 11:37:56;;;;;;;0.25;0.25;;;;;;;;;;5029189;28;20060;-73
2022/11/01 11:40:32;;;;;;;0.30;0.30;;;;;;;;;;5031367;28;20076;-69
2022/11/01 11:43:16;;;;;;;0.20;0.20;;;;;;;;;;5028056;28;20071;-70
2022/11/01 11:45:41;;;;;;;0.22;0.22;;;;;;;;;;5029016;28;20439;-70
2022/11/01 11:48:14;;;;;;;0.22;0.22;;;;;;;;;;5030626;28;20034;-69
2022/11/01 11:58:54;;;;;;;0.30;0.30;;;;;;;;;;5066763;28;20888;-70
2022/11/01 12:01:21;;;;;;;0.40;0.40;;;;;;;;;;5066994;28;20379;-68
2022/11/01 12:03:49;;;;;;;0.30;0.30;;;;;;;;;;5065160;28;20383;-70
2022/11/01 12:06:19;;;;;;;1.38;1.27;;;;;;;;;;5066204;28;20035;-70
2022/11/01 12:08:49;;;;;;;3.50;3.08;;;;;;;;;;5066396;28;20021;-69
2022/11/01 12:11:15;;;;;;;0.73;0.73;;;;;;;;;;5066236;28;20419;-70
2022/11/01 12:13:44;;;;;;;2.22;2.03;;;;;;;;;;5066305;28;20020;-69
2022/11/01 12:16:16;;;;;;;0.47;0.47;;;;;;;;;;5066204;28;20025;-69
2022/11/01 12:18:47;;;;;;;0.63;0.63;;;;;;;;;;5066296;28;20041;-70
2022/11/01 12:21:17;;;;;;;0.22;0.22;;;;;;;;;;5065179;28;20427;-70
2022/11/01 12:23:44;;;;;;;38.90;4.78;;;;;;;;;;5066179;28;20387;-69
2022/11/01 12:26:11;;;;;;;0.77;0.77;;;;;;;;;;5064859;28;20039;-69
2022/11/01 12:28:37;;;;;;;1.48;0.70;;;;;;;;;;5066064;28;20029;-70
2022/11/01 12:31:07;;;;;;;0.57;0.57;;;;;;;;;;5065917;28;20033;-69
2022/11/01 12:33:37;;;;;;;0.30;0.30;;;;;;;;;;5065944;28;20438;-70
2022/11/01 12:36:02;;;;;;;0.77;0.77;;;;;;;;;;5064426;28;20097;-70
2022/11/01 12:38:38;;;;;;;1.02;0.68;;;;;;;;;;5064893;28;20036;-69
2022/11/01 12:41:08;;;;;;;0.40;0.40;;;;;;;;;;5065846;28;20089;-70
2022/11/01 12:43:47;;;;;;;0.45;0.45;;;;;;;;;;5066392;28;20028;-69
2022/11/01 12:46:21;;;;;;;0.30;0.30;;;;;;;;;;5065751;28;20035;-70
2022/11/01 12:48:52;;;;;;;1.77;1.50;;;;;;;;;;5064588;28;20029;-70
2022/11/01 12:51:21;;;;;;;0.30;0.30;;;;;;;;;;5066160;28;20032;-69
2022/11/01 12:53:48;;;;;;;2.88;2.67;;;;;;;;;;5065518;28;20025;-70
2022/11/01 12:56:13;;;;;;;0.63;0.50;;;;;;;;;;5064931;28;20518;-69
2022/11/01 12:58:39;;;;;;;0.68;0.68;;;;;;;;;;5066179;28;20084;-70
2022/11/01 13:01:07;;;;;;;1.25;1.15;;;;;;;;;;5065433;28;20029;-69
2022/11/01 13:03:41;;;;;;;0.57;0.57;;;;;;;;;;5048107;28;20070;-70
2022/11/01 13:06:27;;;;;;;1.30;1.13;;;;;;;;;;5065758;28;20044;-70
2022/11/01 13:09:05;;;;;;;0.50;0.50;;;;;;;;;;5059920;28;20025;-69
2022/11/01 13:11:49;;;;;;;0.32;0.32;;;;;;;;;;5052216;28;20036;-69
2022/11/01 13:14:29;;;;;;;0.40;0.40;;;;;;;;;;5052164;28;20480;-69
2022/11/01 13:17:10;;;;;;;0.50;0.50;;;;;;;;;;5051971;28;20032;-70
2022/11/01 13:19:41;;;;;;;0.40;0.40;;;;;;;;;;5051166;28;20037;-70
2022/11/01 13:22:21;;;;;;;0.30;0.30;;;;;;;;;;5051971;28;20033;-70
2022/11/01 13:25:11;;;;;;;0.95;0.65;;;;;;;;;;5051799;28;20021;-69
2022/11/01 13:27:47;;;;;;;4.78;2.75;;;;;;;;;;5050512;28;20040;-70
2022/11/01 13:30:19;;;;;;;2.88;2.65;;;;;;;;;;5051530;28;20384;-69
2022/11/01 13:33:03;;;;;;;0.40;0.40;;;;;;;;;;5051099;28;20029;-69
2022/11/01 13:35:50;;;;;;;1.20;1.08;;;;;;;;;;5051710;28;20021;-70
2022/11/01 13:38:33;;;;;;;0.22;0.22;;;;;;;;;;5051912;28;20467;-69
2022/11/01 13:41:18;;;;;;;0.30;0.30;;;;;;;;;;5051807;28;20033;-69
2022/11/01 13:43:48;;;;;;;0.30;0.30;;;;;;;;;;5051703;28;20387;-69
2022/11/01 13:46:20;;;;;;;0.45;0.45;;;;;;;;;;5051455;28;20028;-69
2022/11/01 13:49:01;;;;;;;3.72;2.42;;;;;;;;;;5052156;28;20049;-70
2022/11/01 13:51:45;;;;;;;0.32;0.32;;;;;;;;;;5056647;28;20044;-68
2022/11/01 13:54:11;;;;;;;0.20;0.20;;;;;;;;;;5059492;28;20033;-69
2022/11/01 13:56:41;;;;;;;0.20;0.20;;;;;;;;;;5059532;28;20036;-70
2022/11/01 13:59:19;;;;;;;0.20;0.20;;;;;;;;;;5051485;28;20047;-68
2022/11/01 14:01:45;;;;;;;0.40;0.40;;;;;;;;;;5051949;28;20336;-68
2022/11/01 14:04:13;;;;;;;1.45;1.10;;;;;;;;;;5050301;28;20032;-71
2022/11/01 14:06:40;;;;;;;0.20;0.20;;;;;;;;;;5051802;28;20138;-69
2022/11/01 14:09:28;;;;;;;0.47;0.47;;;;;;;;;;5050212;28;20260;-69
2022/11/01 14:12:03;;;;;;;3.53;2.35;;;;;;;;;;5049823;28;20112;-69
2022/11/01 14:14:28;;;;;;;11.60;1.67;;;;;;;;;;5051124;28;20037;-69
2022/11/01 14:17:13;;;;;;;0.30;0.30;;;;;;;;;;5051046;28;20032;-69
2022/11/01 14:19:38;;;;;;;0.40;0.40;;;;;;;;;;5049591;28;20029;-69
2022/11/01 14:22:23;;;;;;;0.40;0.40;;;;;;;;;;5050142;28;20070;-70
2022/11/01 14:24:57;;;;;;;0.30;0.30;;;;;;;;;;5050467;28;20021;-71
2022/11/01 14:27:35;;;;;;;0.65;0.65;;;;;;;;;;5050595;28;20540;-70
2022/11/01 14:30:01;;;;;;;30.37;22.40;;;;;;;;;;5050635;28;20032;-69
2022/11/01 14:32:28;;;;;;;1.63;1.40;;;;;;;;;;5050528;28;20267;-69
2022/11/01 14:34:55;;;;;;;3.83;2.53;;;;;;;;;;5049531;28;20542;-70
2022/11/01 14:37:22;;;;;;;1.20;1.10;;;;;;;;;;5050517;28;20495;-69
2022/11/01 14:39:57;;;;;;;9.13;5.88;;;;;;;;;;5050817;28;20021;-69
2022/11/01 14:42:27;;;;;;;11.48;3.58;;;;;;;;;;5050487;28;20869;-69
2022/11/01 14:44:53;;;;;;;;;;;;;;;;;;5049768;28;20024;-69
2022/11/01 14:47:22;;;;;;;3.30;2.15;;;;;;;;;;5050698;28;19909;-69
2022/11/01 14:49:49;;;;;;;1.02;0.95;;;;;;;;;;5050499;28;20440;-68
2022/11/01 14:52:41;;;;;;;1.60;1.20;;;;;;;;;;5049985;28;20032;-69
2022/11/01 14:55:30;;;;;;;4.38;2.67;;;;;;;;;;5050141;28;20048;-68
2022/11/01 14:58:26;;;;;;;1.13;0.95;;;;;;;;;;5048742;28;20488;-68
2022/11/01 15:00:53;;;;;;;0.75;0.75;;;;;;;;;;5049988;28;20044;-69
2022/11/01 15:03:19;;;;;;;2.17;1.45;;;;;;;;;;5050292;28;20068;-68
2022/11/01 15:05:49;;;;;;;0.30;0.30;;;;;;;;;;5049395;28;20017;-69
2022/11/01 15:08:23;;;;;;;2.47;1.77;;;;;;;;;;5049701;28;20123;-69
2022/11/01 15:10:49;;;;;;;1.77;1.33;;;;;;;;;;5032456;28;20028;-68
2022/11/01 15:13:16;;;;;;;1.38;1.05;;;;;;;;;;5050316;28;20021;-68